createdAt,value
2019-03-11T00:00:28.489Z,87.54
2019-03-11T00:01:38.597Z,87.54
2019-03-11T00:02:48.715Z,87.45
2019-03-11T00:03:58.922Z,87.54
2019-03-11T00:05:10.062Z,87.54
2019-03-11T00:06:19.921Z,87.35
2019-03-11T00:07:30.018Z,87.35
2019-03-11T00:08:40.117Z,87.25
2019-03-11T00:09:50.225Z,87.45
2019-03-11T00:11:00.332Z,87.35
2019-03-11T00:12:10.481Z,87.45
2019-03-11T00:13:20.608Z,87.25
2019-03-11T00:14:30.710Z,87.35
2019-03-11T00:15:40.810Z,87.45
2019-03-11T00:16:50.931Z,87.73
2019-03-11T00:18:01.068Z,87.63
2019-03-11T00:19:11.199Z,87.63
2019-03-11T00:20:21.323Z,87.63
2019-03-11T00:21:31.456Z,87.63
2019-03-11T00:22:41.570Z,87.82
2019-03-11T00:23:51.695Z,87.54
2019-03-11T00:25:01.808Z,88.29
2019-03-11T00:26:11.928Z,88.01
2019-03-11T00:27:22.049Z,87.82
2019-03-11T00:28:32.155Z,87.92
2019-03-11T00:29:42.018Z,88.1
2019-03-11T00:30:54.723Z,88.1
2019-03-11T00:32:04.587Z,88.1
2019-03-11T00:33:15.678Z,88.77
2019-03-11T00:34:25.806Z,88.48
2019-03-11T00:35:35.903Z,88.77
2019-03-11T00:36:46.018Z,88.29
2019-03-11T00:37:56.110Z,88.58
2019-03-11T00:39:06.217Z,88.68
2019-03-11T00:40:16.321Z,88.29
2019-03-11T00:41:26.203Z,88.58
2019-03-11T00:42:36.316Z,88.58
2019-03-11T00:43:46.486Z,88.48
2019-03-11T00:44:56.626Z,88.87
2019-03-11T00:46:06.831Z,88.48
2019-03-11T00:47:16.980Z,88.39
2019-03-11T00:48:27.095Z,89.06
2019-03-11T00:49:37.200Z,88.48
2019-03-11T00:50:47.307Z,88.87
2019-03-11T00:51:57.439Z,88.77
2019-03-11T00:53:07.567Z,88.29
2019-03-11T00:54:17.667Z,89.06
2019-03-11T00:55:27.770Z,88.96
2019-03-11T00:56:37.883Z,88.77
2019-03-11T00:57:47.743Z,88.77
2019-03-11T00:58:57.829Z,88.87
2019-03-11T01:00:07.922Z,89.15
2019-03-11T01:01:18.016Z,88.96
2019-03-11T01:02:28.118Z,89.25
2019-03-11T01:03:38.233Z,89.62
2019-03-11T01:04:48.355Z,89.62
2019-03-11T01:05:58.446Z,89.67
2019-03-11T01:07:08.547Z,89.72
2019-03-11T01:08:18.653Z,89.62
2019-03-11T01:09:28.759Z,90
2019-03-11T01:10:38.869Z,90.1
2019-03-11T01:11:48.982Z,90.19
2019-03-11T01:12:59.092Z,90.1
2019-03-11T01:14:09.227Z,89.91
2019-03-11T01:15:19.362Z,89.81
2019-03-11T01:16:29.549Z,89.81
2019-03-11T01:17:39.645Z,89.43
2019-03-11T01:18:49.740Z,89.62
2019-03-11T01:19:59.857Z,89.34
2019-03-11T01:21:09.967Z,88.96
2019-03-11T01:22:20.061Z,89.25
2019-03-11T01:23:29.898Z,89.25
2019-03-11T01:24:40.029Z,89.25
2019-03-11T01:25:50.135Z,89.15
2019-03-11T01:27:00.234Z,89.06
2019-03-11T01:28:10.096Z,89.34
2019-03-11T01:29:20.209Z,89.25
2019-03-11T01:30:30.314Z,88.96
2019-03-11T01:31:40.406Z,88.77
2019-03-11T01:32:50.570Z,88.87
2019-03-11T01:34:00.695Z,89.06
2019-03-11T01:35:10.831Z,88.58
2019-03-11T01:36:20.580Z,88.39
2019-03-11T01:37:30.675Z,88.68
2019-03-11T01:38:40.766Z,88.48
2019-03-11T01:39:50.875Z,88.58
2019-03-11T01:41:00.706Z,88.58
2019-03-11T01:42:10.801Z,88.48
2019-03-11T01:43:20.912Z,88.48
2019-03-11T01:44:31.230Z,87.82
2019-03-11T01:45:41.350Z,88.2
2019-03-11T01:46:51.440Z,88.01
2019-03-11T01:48:01.552Z,87.92
2019-03-11T01:49:11.725Z,88.39
2019-03-11T01:50:21.872Z,87.73
2019-03-11T01:51:31.973Z,87.92
2019-03-11T01:52:42.075Z,87.73
2019-03-11T01:53:52.187Z,87.92
2019-03-11T01:55:02.299Z,87.25
2019-03-11T01:56:12.445Z,86.97
2019-03-11T01:57:22.535Z,87.16
2019-03-11T01:58:32.639Z,87.06
2019-03-11T01:59:42.735Z,86.97
2019-03-11T02:00:52.825Z,86.87
2019-03-11T02:02:02.941Z,86.97
2019-03-11T02:03:13.048Z,86.68
2019-03-11T02:04:23.142Z,87.16
2019-03-11T02:05:33.251Z,86.87
2019-03-11T02:06:43.348Z,86.3
2019-03-11T02:07:53.429Z,86.49
2019-03-11T02:09:03.539Z,86.49
2019-03-11T02:10:13.639Z,86.49
2019-03-11T02:11:23.734Z,86.4
2019-03-11T02:12:33.825Z,86.59
2019-03-11T02:13:43.929Z,87.06
2019-03-11T02:14:54.021Z,86.59
2019-03-11T02:16:04.189Z,86.4
2019-03-11T02:17:14.282Z,85.93
2019-03-11T02:18:24.379Z,86.11
2019-03-11T02:19:34.471Z,86.3
2019-03-11T02:20:44.581Z,86.11
2019-03-11T02:21:54.679Z,86.02
2019-03-11T02:23:04.807Z,86.21
2019-03-11T02:24:14.905Z,85.55
2019-03-11T02:25:25.011Z,85.45
2019-03-11T02:26:35.118Z,85.26
2019-03-11T02:27:44.921Z,85.26
2019-03-11T02:28:55.031Z,85.26
2019-03-11T02:30:05.147Z,85.26
2019-03-11T02:31:15.255Z,85.26
2019-03-11T02:32:28.521Z,84.88
2019-03-11T02:33:38.857Z,85.26
2019-03-11T02:34:48.993Z,85.45
2019-03-11T02:35:59.093Z,85.17
2019-03-11T02:37:09.184Z,84.78
2019-03-11T02:38:19.287Z,84.78
2019-03-11T02:39:29.394Z,84.59
2019-03-11T02:40:39.536Z,84.03
2019-03-11T02:41:49.380Z,84.31
2019-03-11T02:42:59.493Z,83.74
2019-03-11T02:44:09.765Z,84.03
2019-03-11T02:45:19.890Z,84.12
2019-03-11T02:46:30.018Z,83.65
2019-03-11T02:47:40.175Z,83.46
2019-03-11T02:48:50.286Z,83.65
2019-03-11T02:50:00.419Z,83.46
2019-03-11T02:51:10.528Z,83.46
2019-03-11T02:52:20.692Z,83.65
2019-03-11T02:53:30.862Z,83.46
2019-03-11T02:54:41.010Z,83.46
2019-03-11T02:55:53.599Z,83.55
2019-03-11T02:57:03.705Z,83.55
2019-03-11T02:58:13.812Z,83.65
2019-03-11T02:59:23.691Z,83.17
2019-03-11T03:00:35.541Z,83.17
2019-03-11T03:01:45.672Z,83.17
2019-03-11T03:02:55.781Z,82.98
2019-03-11T03:04:05.878Z,83.17
2019-03-11T03:05:16.070Z,82.98
2019-03-11T03:06:26.185Z,82.89
2019-03-11T03:07:36.305Z,82.98
2019-03-11T03:08:46.513Z,83.27
2019-03-11T03:09:56.641Z,83.17
2019-03-11T03:11:06.789Z,82.7
2019-03-11T03:12:16.907Z,82.42
2019-03-11T03:13:27.040Z,82.32
2019-03-11T03:14:37.172Z,82.04
2019-03-11T03:15:47.297Z,82.13
2019-03-11T03:16:57.391Z,82.42
2019-03-11T03:18:07.517Z,82.51
2019-03-11T03:19:17.611Z,82.13
2019-03-11T03:20:27.712Z,82.23
2019-03-11T03:21:37.834Z,81.94
2019-03-11T03:22:48.027Z,82.04
2019-03-11T03:23:58.153Z,82.32
2019-03-11T03:25:08.285Z,82.13
2019-03-11T03:26:18.489Z,82.32
2019-03-11T03:27:28.607Z,82.04
2019-03-11T03:28:39.021Z,82.13
2019-03-11T03:29:49.171Z,82.32
2019-03-11T03:30:59.429Z,82.28
2019-03-11T03:32:09.666Z,82.42
2019-03-11T03:33:19.827Z,82.42
2019-03-11T03:34:30.018Z,82.42
2019-03-11T03:35:40.176Z,82.51
2019-03-11T03:36:50.314Z,82.51
2019-03-11T03:38:00.424Z,82.13
2019-03-11T03:39:10.556Z,82.32
2019-03-11T03:40:20.675Z,82.23
2019-03-11T03:41:30.796Z,82.28
2019-03-11T03:42:40.987Z,82.13
2019-03-11T03:43:51.406Z,82.28
2019-03-11T03:45:01.511Z,82.7
2019-03-11T03:46:21.487Z,82.04
2019-03-11T03:47:31.603Z,82.51
2019-03-11T03:48:42.011Z,82.51
2019-03-11T03:49:53.065Z,82.32
2019-03-11T03:51:03.416Z,82.23
2019-03-11T03:52:13.521Z,82.13
2019-03-11T03:53:23.629Z,82.32
2019-03-11T03:54:33.759Z,82.04
2019-03-11T03:55:43.889Z,81.94
2019-03-11T03:56:56.647Z,82.23
2019-03-11T03:58:06.870Z,82.23
2019-03-11T03:59:16.990Z,81.85
2019-03-11T04:00:27.115Z,81.56
2019-03-11T04:01:37.263Z,81.75
2019-03-11T04:02:47.377Z,81.85
2019-03-11T04:03:57.487Z,81.62
2019-03-11T04:05:07.615Z,81.85
2019-03-11T04:06:17.728Z,82.13
2019-03-11T04:07:27.844Z,81.75
2019-03-11T04:08:37.955Z,81.66
2019-03-11T04:09:48.067Z,82.04
2019-03-11T04:10:58.012Z,81.75
2019-03-11T04:12:08.140Z,82.13
2019-03-11T04:13:18.348Z,81.27
2019-03-11T04:14:28.453Z,81.09
2019-03-11T04:15:38.564Z,81.37
2019-03-11T04:16:48.670Z,80.9
2019-03-11T04:17:58.820Z,81.24
2019-03-11T04:19:08.939Z,81.43
2019-03-11T04:20:19.072Z,81.9
2019-03-11T04:21:29.197Z,81.9
2019-03-11T04:22:39.313Z,81.71
2019-03-11T04:23:49.403Z,81.62
2019-03-11T04:24:59.553Z,81.81
2019-03-11T04:26:09.675Z,81.81
2019-03-11T04:27:19.772Z,81.99
2019-03-11T04:28:29.965Z,81.81
2019-03-11T04:29:39.860Z,81.52
2019-03-11T04:30:49.962Z,81.81
2019-03-11T04:32:00.069Z,81.62
2019-03-11T04:33:10.265Z,81.81
2019-03-11T04:34:20.131Z,81.81
2019-03-11T04:35:29.995Z,81.62
2019-03-11T04:36:40.110Z,81.81
2019-03-11T04:37:50.214Z,81.71
2019-03-11T04:39:00.063Z,81.71
2019-03-11T04:40:10.175Z,81.81
2019-03-11T04:41:20.270Z,81.71
2019-03-11T04:42:30.378Z,81.9
2019-03-11T04:43:40.473Z,81.52
2019-03-11T04:44:50.583Z,81.9
2019-03-11T04:46:00.693Z,81.9
2019-03-11T04:47:10.794Z,81.81
2019-03-11T04:48:20.884Z,81.81
2019-03-11T04:49:31.002Z,81.9
2019-03-11T04:50:40.845Z,81.81
2019-03-11T04:51:50.939Z,81.81
2019-03-11T04:53:01.036Z,81.71
2019-03-11T04:54:11.138Z,81.81
2019-03-11T04:55:21.306Z,81.81
2019-03-11T04:56:31.425Z,81.99
2019-03-11T04:57:41.153Z,81.99
2019-03-11T04:58:51.242Z,81.9
2019-03-11T05:00:01.354Z,82.28
2019-03-11T05:01:11.447Z,82.09
2019-03-11T05:02:21.636Z,82.85
2019-03-11T05:03:31.765Z,82.85
2019-03-11T05:04:41.897Z,82.56
2019-03-11T05:05:51.991Z,83.04
2019-03-11T05:07:01.835Z,83.23
2019-03-11T05:08:11.932Z,83.23
2019-03-11T05:09:22.077Z,83.61
2019-03-11T05:10:32.231Z,83.04
2019-03-11T05:11:42.091Z,83.23
2019-03-11T05:12:52.203Z,83.8
2019-03-11T05:14:02.317Z,83.7
2019-03-11T05:15:12.450Z,83.55
2019-03-11T05:16:22.229Z,84.12
2019-03-11T05:17:32.383Z,84.22
2019-03-11T05:18:42.502Z,84.59
2019-03-11T05:19:52.695Z,84.22
2019-03-11T05:21:02.784Z,84.98
2019-03-11T05:22:12.894Z,84.5
2019-03-11T05:23:22.981Z,85.26
2019-03-11T05:24:33.126Z,85.07
2019-03-11T05:25:43.238Z,85.36
2019-03-11T05:26:53.483Z,85.36
2019-03-11T05:28:03.620Z,84.88
2019-03-11T05:29:13.706Z,84.88
2019-03-11T05:30:23.812Z,85.07
2019-03-11T05:31:33.924Z,85.17
2019-03-11T05:32:44.025Z,85.26
2019-03-11T05:33:54.150Z,85.45
2019-03-11T05:35:04.382Z,85.07
2019-03-11T05:36:14.488Z,84.98
2019-03-11T05:37:24.585Z,84.98
2019-03-11T05:38:34.701Z,85.36
2019-03-11T05:39:44.866Z,85.26
2019-03-11T05:40:54.977Z,85.45
2019-03-11T05:42:05.090Z,85.55
2019-03-11T05:43:15.212Z,85.45
2019-03-11T05:44:25.334Z,85.45
2019-03-11T05:45:35.185Z,85.83
2019-03-11T05:46:45.291Z,85.64
2019-03-11T05:47:55.416Z,85.07
2019-03-11T05:49:05.531Z,85.45
2019-03-11T05:50:15.633Z,85.93
2019-03-11T05:51:33.804Z,85.55
2019-03-11T05:52:43.904Z,85.45
2019-03-11T05:53:53.748Z,85.45
2019-03-11T05:55:03.932Z,85.55
2019-03-11T05:56:13.784Z,85.64
2019-03-11T05:57:23.883Z,85.45
2019-03-11T05:58:33.996Z,85.55
2019-03-11T05:59:44.135Z,85.45
2019-03-11T06:00:54.232Z,85.36
2019-03-11T06:02:04.337Z,85.26
2019-03-11T06:03:14.437Z,85.36
2019-03-11T06:04:24.547Z,85.45
2019-03-11T06:05:34.682Z,85.83
2019-03-11T06:06:44.788Z,85.64
2019-03-11T06:07:54.904Z,85.93
2019-03-11T06:09:05.078Z,85.93
2019-03-11T06:10:15.220Z,85.93
2019-03-11T06:11:25.345Z,85.93
2019-03-11T06:12:35.458Z,86.3
2019-03-11T06:13:45.576Z,85.74
2019-03-11T06:14:55.674Z,85.83
2019-03-11T06:16:05.779Z,85.93
2019-03-11T06:17:15.947Z,85.45
2019-03-11T06:18:26.102Z,85.93
2019-03-11T06:19:36.198Z,85.83
2019-03-11T06:20:46.304Z,85.93
2019-03-11T06:21:56.408Z,85.93
2019-03-11T06:23:06.517Z,85.93
2019-03-11T06:24:16.626Z,85.55
2019-03-11T06:25:26.748Z,85.69
2019-03-11T06:26:36.926Z,85.93
2019-03-11T06:27:47.128Z,86.21
2019-03-11T06:28:57.227Z,86.49
2019-03-11T06:30:08.205Z,86.59
2019-03-11T06:31:18.503Z,86.49
2019-03-11T06:32:28.607Z,86.68
2019-03-11T06:33:38.715Z,86.4
2019-03-11T06:34:48.563Z,86.49
2019-03-11T06:35:58.692Z,85.83
2019-03-11T06:37:08.790Z,85.93
2019-03-11T06:38:18.885Z,85.45
2019-03-11T06:39:29.000Z,85.45
2019-03-11T06:40:39.101Z,85.45
2019-03-11T06:41:51.421Z,85.83
2019-03-11T06:43:01.264Z,85.74
2019-03-11T06:44:11.367Z,85.55
2019-03-11T06:45:21.477Z,85.64
2019-03-11T06:46:31.593Z,85.55
2019-03-11T06:47:41.692Z,85.55
2019-03-11T06:48:51.793Z,85.64
2019-03-11T06:50:01.636Z,85.74
2019-03-11T06:51:11.758Z,86.02
2019-03-11T06:52:22.049Z,85.74
2019-03-11T06:53:32.150Z,85.83
2019-03-11T06:54:42.262Z,85.64
2019-03-11T06:55:52.101Z,85.36
2019-03-11T06:57:02.214Z,85.36
2019-03-11T06:58:12.325Z,85.45
2019-03-11T06:59:22.446Z,85.55
2019-03-11T07:00:32.545Z,85.64
2019-03-11T07:01:42.639Z,85.45
2019-03-11T07:02:52.764Z,85.45
2019-03-11T07:04:02.518Z,85.55
2019-03-11T07:05:22.143Z,85.45
2019-03-11T07:06:32.237Z,85.07
2019-03-11T07:07:42.341Z,85.17
2019-03-11T07:08:52.460Z,84.59
2019-03-11T07:10:02.567Z,84.64
2019-03-11T07:11:12.671Z,84.69
2019-03-11T07:12:22.773Z,84.92
2019-03-11T07:13:32.887Z,84.45
2019-03-11T07:14:43.011Z,84.07
2019-03-11T07:15:53.121Z,84.17
2019-03-11T07:17:03.279Z,83.5
2019-03-11T07:18:13.394Z,83.59
2019-03-11T07:19:23.514Z,83.88
2019-03-11T07:20:33.616Z,83.5
2019-03-11T07:21:43.711Z,83.31
2019-03-11T07:22:53.838Z,83.03
2019-03-11T07:24:03.928Z,83.31
2019-03-11T07:25:13.661Z,82.84
2019-03-11T07:26:23.768Z,82.65
2019-03-11T07:27:33.618Z,82.84
2019-03-11T07:28:43.712Z,82.36
2019-03-11T07:29:53.811Z,82.08
2019-03-11T07:31:03.898Z,81.98
2019-03-11T07:32:14.013Z,82.03
2019-03-11T07:33:24.130Z,80.98
2019-03-11T07:34:34.231Z,81.26
2019-03-11T07:35:44.328Z,81.45
2019-03-11T07:36:54.433Z,80.88
2019-03-11T07:38:04.439Z,80.69
2019-03-11T07:39:14.564Z,80.13
2019-03-11T07:40:32.364Z,79.55
2019-03-11T07:41:42.464Z,79.74
2019-03-11T07:42:52.586Z,79.36
2019-03-11T07:44:02.743Z,79.17
2019-03-11T07:45:12.891Z,79.41
2019-03-11T07:46:22.997Z,78.83
2019-03-11T07:47:33.115Z,78.64
2019-03-11T07:48:42.858Z,77.98
2019-03-11T07:49:52.974Z,77.79
2019-03-11T07:51:03.286Z,77.51
2019-03-11T07:52:13.384Z,76.88
2019-03-11T07:53:23.502Z,77.36
2019-03-11T07:54:38.358Z,77.17
2019-03-11T07:55:48.457Z,75.68
2019-03-11T07:56:58.571Z,75.3
2019-03-11T07:58:08.674Z,74.35
2019-03-11T07:59:18.791Z,74.44
2019-03-11T08:00:28.924Z,74.73
2019-03-11T08:01:39.062Z,74.29
2019-03-11T08:02:49.179Z,72.2
2019-03-11T08:03:59.303Z,70.39
2019-03-11T08:05:09.411Z,70.05
2019-03-11T08:06:21.502Z,69.82
2019-03-11T08:07:31.658Z,70.24
2019-03-11T08:08:41.766Z,69.95
2019-03-11T08:09:51.860Z,67.99
2019-03-11T08:11:01.968Z,69.07
2019-03-11T08:12:12.076Z,68.78
2019-03-11T08:13:22.203Z,68.46
2019-03-11T08:14:32.318Z,68.75
2019-03-11T08:15:42.428Z,68.08
2019-03-11T08:16:52.540Z,66.37
2019-03-11T08:18:02.654Z,66.24
2019-03-11T08:19:13.869Z,66.68
2019-03-11T08:20:23.987Z,67.54
2019-03-11T08:21:33.868Z,68.11
2019-03-11T08:22:44.040Z,68.93
2019-03-11T08:23:54.383Z,68.46
2019-03-11T08:25:04.478Z,68.74
2019-03-11T08:26:14.611Z,69.02
2019-03-11T08:27:24.476Z,69.75
2019-03-11T08:28:34.655Z,70.13
2019-03-11T08:29:44.515Z,69.37
2019-03-11T08:30:54.629Z,68.33
2019-03-11T08:32:04.753Z,67.94
2019-03-11T08:33:14.880Z,68.42
2019-03-11T08:34:24.996Z,69.37
2019-03-11T08:35:35.114Z,69.18
2019-03-11T08:36:45.221Z,69.18
2019-03-11T08:37:55.353Z,69.75
2019-03-11T08:39:10.572Z,69.27
2019-03-11T08:40:20.700Z,68.9
2019-03-11T08:41:30.881Z,67.6
2019-03-11T08:42:40.987Z,66.08
2019-03-11T08:43:51.108Z,65.89
2019-03-11T08:45:01.225Z,66.74
2019-03-11T08:46:11.340Z,66.3
2019-03-11T08:47:21.465Z,65.06
2019-03-11T08:48:31.599Z,65.83
2019-03-11T08:49:41.700Z,64.4
2019-03-11T08:50:51.812Z,64.31
2019-03-11T08:52:01.930Z,63.35
2019-03-11T08:53:13.312Z,64.72
2019-03-11T08:54:23.444Z,63.89
2019-03-11T08:55:33.295Z,63.23
2019-03-11T08:56:43.423Z,61.35
2019-03-11T08:57:53.529Z,61.73
2019-03-11T08:59:03.650Z,61.73
2019-03-11T09:00:13.782Z,61.07
2019-03-11T09:01:23.897Z,60.75
2019-03-11T09:02:34.014Z,61.8
2019-03-11T09:03:44.136Z,61.51
2019-03-11T09:04:55.585Z,61.04
2019-03-11T09:06:05.814Z,60.85
2019-03-11T09:07:15.938Z,60.37
2019-03-11T09:08:26.102Z,60.37
2019-03-11T09:09:36.208Z,59.83
2019-03-11T09:10:46.332Z,59.06
2019-03-11T09:11:56.545Z,57.45
2019-03-11T09:13:06.417Z,56.21
2019-03-11T09:14:16.563Z,57
2019-03-11T09:15:26.314Z,56.81
2019-03-11T09:16:36.447Z,57.03
2019-03-11T09:17:46.570Z,56.36
2019-03-11T09:18:56.686Z,55.5
2019-03-11T09:20:06.815Z,55.21
2019-03-11T09:21:16.579Z,55.31
2019-03-11T09:22:26.692Z,54.45
2019-03-11T09:23:37.138Z,54.93
2019-03-11T09:24:47.283Z,53.97
2019-03-11T09:25:57.482Z,53.78
2019-03-11T09:27:07.612Z,55.85
2019-03-11T09:28:18.028Z,56.04
2019-03-11T09:29:28.505Z,56.87
2019-03-11T09:30:38.617Z,57.45
2019-03-11T09:31:48.510Z,58.56
2019-03-11T09:32:58.618Z,58.94
2019-03-11T09:34:11.397Z,59.58
2019-03-11T09:35:21.514Z,60.05
2019-03-11T09:36:32.636Z,60.97
2019-03-11T09:37:42.753Z,61.55
2019-03-11T09:38:53.839Z,62.02
2019-03-11T09:40:03.950Z,62.59
2019-03-11T09:41:14.067Z,63.45
2019-03-11T09:42:24.203Z,63.04
2019-03-11T09:43:34.344Z,63.32
2019-03-11T09:44:44.471Z,63.32
2019-03-11T09:45:55.223Z,63.51
2019-03-11T09:47:05.334Z,63.79
2019-03-11T09:48:15.188Z,64.56
2019-03-11T09:49:25.308Z,64.9
2019-03-11T09:50:35.430Z,65
2019-03-11T09:51:45.584Z,65.19
2019-03-11T09:52:55.727Z,65.38
2019-03-11T09:54:05.829Z,66.14
2019-03-11T09:55:15.692Z,66.05
2019-03-11T09:56:25.815Z,66.52
2019-03-11T09:57:46.185Z,66.61
2019-03-11T09:58:56.321Z,67.34
2019-03-11T10:00:06.641Z,66.77
2019-03-11T10:01:17.131Z,67.34
2019-03-11T10:02:27.803Z,67.72
2019-03-11T10:03:37.969Z,67.82
2019-03-11T10:04:48.082Z,67.82
2019-03-11T10:05:57.949Z,67.82
2019-03-11T10:07:08.075Z,68.01
2019-03-11T10:08:18.175Z,68.01
2019-03-11T10:09:28.307Z,68.01
2019-03-11T10:10:37.675Z,68.19
2019-03-11T10:11:47.857Z,68.77
2019-03-11T10:12:57.996Z,68.58
2019-03-11T10:14:08.134Z,68.39
2019-03-11T10:15:18.256Z,68.58
2019-03-11T10:16:28.363Z,68.19
2019-03-11T10:17:38.496Z,68.01
2019-03-11T10:18:50.279Z,68.01
2019-03-11T10:20:00.555Z,68.48
2019-03-11T10:21:10.706Z,68.39
2019-03-11T10:22:20.872Z,68.01
2019-03-11T10:23:34.946Z,68.19
2019-03-11T10:24:44.827Z,68.01
2019-03-11T10:25:54.937Z,68.39
2019-03-11T10:27:05.087Z,68.77
2019-03-11T10:28:14.939Z,68.86
2019-03-11T10:29:25.042Z,68.96
2019-03-11T10:30:35.198Z,69.05
2019-03-11T10:31:44.698Z,68.86
2019-03-11T10:32:54.825Z,69.05
2019-03-11T10:34:04.961Z,68.96
2019-03-11T10:35:33.664Z,68.96
2019-03-11T10:36:43.782Z,68.39
2019-03-11T10:37:53.647Z,69.15
2019-03-11T10:39:03.778Z,68.77
2019-03-11T10:40:13.951Z,68.58
2019-03-11T10:41:23.883Z,68.1
2019-03-11T10:42:33.995Z,68.39
2019-03-11T10:43:44.100Z,69.05
2019-03-11T10:44:54.212Z,68.67
2019-03-11T10:46:04.326Z,69.05
2019-03-11T10:47:14.468Z,68.58
2019-03-11T10:48:24.578Z,68.33
2019-03-11T10:49:45.006Z,68.48
2019-03-11T10:50:55.228Z,68.04
2019-03-11T10:52:07.351Z,68.23
2019-03-11T10:53:17.622Z,68.33
2019-03-11T10:54:27.743Z,68.33
2019-03-11T10:55:37.879Z,67.85
2019-03-11T10:56:48.014Z,68.23
2019-03-11T10:57:58.134Z,68.33
2019-03-11T10:59:08.247Z,68.13
2019-03-11T11:00:18.349Z,68.33
2019-03-11T11:01:28.468Z,67.66
2019-03-11T11:02:38.572Z,67.38
2019-03-11T11:03:48.686Z,68.04
2019-03-11T11:04:58.796Z,67.47
2019-03-11T11:06:08.917Z,67.66
2019-03-11T11:07:20.342Z,67.85
2019-03-11T11:08:30.486Z,67.76
2019-03-11T11:09:40.592Z,68.04
2019-03-11T11:10:50.731Z,68.13
2019-03-11T11:12:00.861Z,68.33
2019-03-11T11:13:10.993Z,68.13
2019-03-11T11:14:21.119Z,68.04
2019-03-11T11:15:31.222Z,68.13
2019-03-11T11:16:41.322Z,68.04
2019-03-11T11:17:54.139Z,68.33
2019-03-11T11:19:04.258Z,68.23
2019-03-11T11:20:14.368Z,68.13
2019-03-11T11:21:24.464Z,68.33
2019-03-11T11:22:34.593Z,68.61
2019-03-11T11:23:44.720Z,69.09
2019-03-11T11:24:54.856Z,69.81
2019-03-11T11:26:04.959Z,70.51
2019-03-11T11:27:15.096Z,71.33
2019-03-11T11:28:25.203Z,71.37
2019-03-11T11:29:35.304Z,71.62
2019-03-11T11:30:45.413Z,71.75
2019-03-11T11:31:55.536Z,72.22
2019-03-11T11:33:05.645Z,72.22
2019-03-11T11:34:15.767Z,72.79
2019-03-11T11:35:25.880Z,72.32
2019-03-11T11:36:35.994Z,73.08
2019-03-11T11:37:46.124Z,72.7
2019-03-11T11:38:56.227Z,72.99
2019-03-11T11:40:06.357Z,72.79
2019-03-11T11:41:18.932Z,72.99
2019-03-11T11:42:29.043Z,74.12
2019-03-11T11:43:39.161Z,74.12
2019-03-11T11:44:49.287Z,74.98
2019-03-11T11:45:59.143Z,75.26
2019-03-11T11:47:09.245Z,75.45
2019-03-11T11:48:19.373Z,75.93
2019-03-11T11:49:29.504Z,75.26
2019-03-11T11:50:39.604Z,75.74
2019-03-11T11:51:49.730Z,75.74
2019-03-11T11:52:59.606Z,75.93
2019-03-11T11:54:09.766Z,75.3
2019-03-11T11:55:19.885Z,74.92
2019-03-11T11:56:30.019Z,74.73
2019-03-11T11:57:40.137Z,75.02
2019-03-11T11:58:50.271Z,74.16
2019-03-11T12:00:00.288Z,74.07
2019-03-11T12:01:10.419Z,73.78
2019-03-11T12:02:20.538Z,73.11
2019-03-11T12:03:30.639Z,72.83
2019-03-11T12:04:40.760Z,72.45
2019-03-11T12:05:50.909Z,72.16
2019-03-11T12:07:01.038Z,71.41
2019-03-11T12:08:11.163Z,71.59
2019-03-11T12:09:21.299Z,71.78
2019-03-11T12:10:31.410Z,72.35
2019-03-11T12:11:41.536Z,72.55
2019-03-11T12:12:51.676Z,72.07
2019-03-11T12:14:01.854Z,72.26
2019-03-11T12:15:11.974Z,73.18
2019-03-11T12:16:22.089Z,72.79
2019-03-11T12:17:32.263Z,73.08
2019-03-11T12:18:42.421Z,74.03
2019-03-11T12:19:52.562Z,74.03
2019-03-11T12:21:02.728Z,73.97
2019-03-11T12:22:12.837Z,73.4
2019-03-11T12:23:22.988Z,73.4
2019-03-11T12:24:33.099Z,72.92
2019-03-11T12:25:43.226Z,72.64
2019-03-11T12:26:53.343Z,72.16
2019-03-11T12:28:03.451Z,72.07
2019-03-11T12:29:13.555Z,71.97
2019-03-11T12:30:23.425Z,71.97
2019-03-11T12:31:33.568Z,72.07
2019-03-11T12:32:43.710Z,72.26
2019-03-11T12:33:53.832Z,71.97
2019-03-11T12:35:04.017Z,71.97
2019-03-11T12:36:14.206Z,72.64
2019-03-11T12:37:24.339Z,72.74
2019-03-11T12:38:34.500Z,72.83
2019-03-11T12:39:44.689Z,73.11
2019-03-11T12:40:54.802Z,72.55
2019-03-11T12:42:04.948Z,73.02
2019-03-11T12:43:15.081Z,73.08
2019-03-11T12:44:25.201Z,73.08
2019-03-11T12:45:35.335Z,73.18
2019-03-11T12:46:45.440Z,72.74
2019-03-11T12:47:55.618Z,72.92
2019-03-11T12:49:05.727Z,72.55
2019-03-11T12:50:17.359Z,72.16
2019-03-11T12:51:27.521Z,72.26
2019-03-11T12:52:37.652Z,72.64
2019-03-11T12:53:47.822Z,72.64
2019-03-11T12:54:57.955Z,72.35
2019-03-11T12:56:08.167Z,73.49
2019-03-11T12:57:18.276Z,74.51
2019-03-11T12:58:28.417Z,75.07
2019-03-11T12:59:49.399Z,74.79
2019-03-11T13:00:59.511Z,75.17
2019-03-11T13:02:11.404Z,76.03
2019-03-11T13:03:21.543Z,76.69
2019-03-11T13:04:31.654Z,76.78
2019-03-11T13:05:41.777Z,76.84
2019-03-11T13:06:51.979Z,77.03
2019-03-11T13:08:01.862Z,77.6
2019-03-11T13:09:11.974Z,77.7
2019-03-11T13:10:22.090Z,77.79
2019-03-11T13:11:32.209Z,77.83
2019-03-11T13:12:42.352Z,77.83
2019-03-11T13:13:52.444Z,77.36
2019-03-11T13:15:02.575Z,77.07
2019-03-11T13:16:12.691Z,77.17
2019-03-11T13:17:22.563Z,76.78
2019-03-11T13:18:33.178Z,76.03
2019-03-11T13:19:43.439Z,75.78
2019-03-11T13:20:53.566Z,75.4
2019-03-11T13:22:03.690Z,75.49
2019-03-11T13:23:13.554Z,75.3
2019-03-11T13:24:23.690Z,75.21
2019-03-11T13:25:33.438Z,75.21
2019-03-11T13:26:43.553Z,73.97
2019-03-11T13:27:53.694Z,72.92
2019-03-11T13:29:03.850Z,73.11
2019-03-11T13:30:13.998Z,72.45
2019-03-11T13:31:24.129Z,72.77
2019-03-11T13:32:34.030Z,72.39
2019-03-11T13:33:43.965Z,72.77
2019-03-11T13:34:54.099Z,72.01
2019-03-11T13:36:03.888Z,71.72
2019-03-11T13:37:14.018Z,71.15
2019-03-11T13:38:24.152Z,71.34
2019-03-11T13:39:34.278Z,69.57
2019-03-11T13:40:44.136Z,69.29
2019-03-11T13:41:55.615Z,68.62
2019-03-11T13:43:05.755Z,69.1
2019-03-11T13:44:15.878Z,69
2019-03-11T13:45:26.015Z,69
2019-03-11T13:46:36.180Z,69.15
2019-03-11T13:47:46.285Z,70.39
2019-03-11T13:48:56.181Z,71.34
2019-03-11T13:50:06.294Z,71.82
2019-03-11T13:51:16.418Z,72.11
2019-03-11T13:52:26.655Z,72.39
2019-03-11T13:53:36.774Z,73.15
2019-03-11T13:54:46.921Z,73.15
2019-03-11T13:55:57.050Z,72.3
2019-03-11T13:57:07.182Z,73.06
2019-03-11T13:58:17.293Z,72.49
2019-03-11T13:59:27.442Z,71.63
2019-03-11T14:00:37.328Z,71.25
2019-03-11T14:01:47.435Z,70.68
2019-03-11T14:02:57.576Z,70.49
2019-03-11T14:04:07.705Z,70.39
2019-03-11T14:05:17.850Z,69.35
2019-03-11T14:06:28.088Z,68.11
2019-03-11T14:07:37.968Z,67.63
2019-03-11T14:08:48.091Z,66.78
2019-03-11T14:09:58.216Z,66.87
2019-03-11T14:11:08.363Z,67.44
2019-03-11T14:12:18.484Z,68.11
2019-03-11T14:13:28.453Z,68.21
2019-03-11T14:14:38.585Z,68.4
2019-03-11T14:15:48.707Z,68.87
2019-03-11T14:17:00.159Z,68.49
2019-03-11T14:18:10.301Z,68.21
2019-03-11T14:19:20.427Z,68.11
2019-03-11T14:20:30.577Z,68.21
2019-03-11T14:21:40.748Z,68.59
2019-03-11T14:22:50.887Z,68.68
2019-03-11T14:24:01.049Z,69.06
2019-03-11T14:25:11.161Z,69.15
2019-03-11T14:26:21.266Z,69.15
2019-03-11T14:27:31.403Z,69.06
2019-03-11T14:28:41.266Z,69.15
2019-03-11T14:29:51.420Z,69.21
2019-03-11T14:31:01.555Z,69.79
2019-03-11T14:32:12.851Z,70.26
2019-03-11T14:33:26.210Z,70.83
2019-03-11T14:34:36.339Z,71.41
2019-03-11T14:35:46.479Z,72.07
2019-03-11T14:36:57.749Z,72.35
2019-03-11T14:38:07.881Z,72.45
2019-03-11T14:39:17.756Z,72.45
2019-03-11T14:40:28.035Z,72.45
2019-03-11T14:41:38.168Z,72.45
2019-03-11T14:42:48.302Z,72.92
2019-03-11T14:43:58.190Z,72.74
2019-03-11T14:45:10.976Z,72.74
2019-03-11T14:46:21.088Z,73.02
2019-03-11T14:47:31.225Z,72.16
2019-03-11T14:48:41.361Z,72.35
2019-03-11T14:49:51.538Z,72.07
2019-03-11T14:51:01.704Z,72.45
2019-03-11T14:52:11.863Z,72.35
2019-03-11T14:53:21.998Z,71.97
2019-03-11T14:54:32.107Z,72.07
2019-03-11T14:55:42.575Z,71.5
2019-03-11T14:56:52.755Z,71.59
2019-03-11T14:58:03.718Z,71.69
2019-03-11T14:59:13.842Z,71.88
2019-03-11T15:00:23.989Z,71.88
2019-03-11T15:01:34.105Z,71.12
2019-03-11T15:02:44.276Z,71.41
2019-03-11T15:03:54.417Z,71.59
2019-03-11T15:05:04.560Z,71.5
2019-03-11T15:06:14.705Z,71.69
2019-03-11T15:07:24.811Z,71.59